Time;durP1;ratioP1;P1;durP2;ratioP2;P2;SDS_P1;SDS_P2;PMS_P1;PMS_P2;Temp;Humidity;BMP_temperature;BMP_pressure;BME280_temperature;BME280_humidity;BME280_pressure;Samples;Min_cycle;Max_cycle;Signal;HPM_P1;HPM_P2
2021/05/07 00:02:10;;;;;;;15.40;6.90;;;;;;;;;;5107655;28;20054;-66
2021/05/07 00:04:36;;;;;;;14.83;6.77;;;;;;;;;;5111643;28;20515;-66
2021/05/07 00:07:01;;;;;;;16.40;6.27;;;;;;;;;;5109231;28;20019;-66
2021/05/07 00:09:27;;;;;;;14.67;6.80;;;;;;;;;;5112392;28;20053;-66
2021/05/07 00:11:53;;;;;;;15.03;6.27;;;;;;;;;;5110631;28;20392;-66
2021/05/07 00:14:18;;;;;;;15.87;6.30;;;;;;;;;;5111079;28;20274;-66
2021/05/07 00:16:43;;;;;;;15.67;6.00;;;;;;;;;;5111099;28;20722;-66
2021/05/07 00:19:09;;;;;;;13.20;5.93;;;;;;;;;;5111721;28;20098;-66
2021/05/07 00:21:34;;;;;;;11.37;5.23;;;;;;;;;;5104412;28;20039;-66
2021/05/07 00:24:00;;;;;;;14.07;5.87;;;;;;;;;;5113264;28;20035;-66
2021/05/07 00:26:25;;;;;;;11.10;4.77;;;;;;;;;;5106586;28;20024;-66
2021/05/07 00:28:50;;;;;;;10.10;4.80;;;;;;;;;;5113541;28;20088;-66
2021/05/07 00:31:17;;;;;;;11.90;5.40;;;;;;;;;;5105273;28;20028;-66
2021/05/07 00:33:42;;;;;;;11.87;4.60;;;;;;;;;;5112662;28;20379;-66
2021/05/07 00:36:07;;;;;;;13.00;4.97;;;;;;;;;;5111210;28;20031;-66
2021/05/07 00:38:33;;;;;;;12.37;5.40;;;;;;;;;;5111572;28;20084;-66
2021/05/07 00:40:58;;;;;;;11.80;5.57;;;;;;;;;;5106279;28;20531;-66
2021/05/07 00:43:24;;;;;;;14.27;5.07;;;;;;;;;;5102826;28;20035;-66
2021/05/07 00:45:51;;;;;;;13.07;4.80;;;;;;;;;;5110148;28;20364;-66
2021/05/07 00:48:17;;;;;;;13.43;5.90;;;;;;;;;;5107122;28;20688;-66
2021/05/07 00:50:45;;;;;;;12.67;5.47;;;;;;;;;;5105944;28;20353;-66
2021/05/07 00:53:11;;;;;;;14.60;5.97;;;;;;;;;;5101611;28;20026;-66
2021/05/07 00:55:37;;;;;;;13.33;5.53;;;;;;;;;;5110639;28;20265;-66
2021/05/07 00:58:02;;;;;;;12.77;5.43;;;;;;;;;;5107605;28;20379;-66
2021/05/07 01:00:30;;;;;;;15.27;5.80;;;;;;;;;;5111017;28;20106;-66
2021/05/07 01:02:56;;;;;;;12.17;5.17;;;;;;;;;;5115931;27;20455;-66
2021/05/07 01:05:21;;;;;;;13.50;5.60;;;;;;;;;;5104145;28;20369;-66
2021/05/07 01:07:47;;;;;;;14.10;5.97;;;;;;;;;;5110087;28;20035;-66
2021/05/07 01:10:12;;;;;;;13.43;5.87;;;;;;;;;;5110386;28;20098;-66
2021/05/07 01:12:40;;;;;;;18.37;6.93;;;;;;;;;;5108580;28;20032;-66
2021/05/07 01:15:05;;;;;;;12.87;5.50;;;;;;;;;;5097748;28;20036;-66
2021/05/07 01:17:31;;;;;;;14.90;6.17;;;;;;;;;;5106644;28;20694;-66
2021/05/07 01:20:07;;;;;;;14.67;6.23;;;;;;;;;;5108578;28;20027;-66
2021/05/07 01:22:32;;;;;;;13.83;6.07;;;;;;;;;;5109906;28;20277;-66
2021/05/07 01:24:58;;;;;;;16.73;6.50;;;;;;;;;;5111013;28;20289;-66
2021/05/07 01:27:23;;;;;;;14.83;5.40;;;;;;;;;;5109986;28;20483;-66
2021/05/07 01:29:48;;;;;;;16.70;6.47;;;;;;;;;;5110116;28;20092;-66
2021/05/07 01:32:13;;;;;;;20.87;6.47;;;;;;;;;;5102086;28;20062;-66
2021/05/07 01:34:39;;;;;;;17.07;5.83;;;;;;;;;;5111921;28;20028;-66
2021/05/07 01:37:04;;;;;;;15.27;6.03;;;;;;;;;;5110861;28;20486;-66
2021/05/07 01:39:29;;;;;;;14.60;6.10;;;;;;;;;;5110609;28;20157;-66
2021/05/07 01:41:55;;;;;;;18.53;6.43;;;;;;;;;;5108711;28;20085;-66
2021/05/07 01:44:20;;;;;;;15.67;5.83;;;;;;;;;;5109765;28;20475;-66
2021/05/07 01:46:45;;;;;;;15.03;6.53;;;;;;;;;;5111404;28;21296;-66
2021/05/07 01:49:10;;;;;;;16.50;5.83;;;;;;;;;;5108684;28;20569;-66
2021/05/07 01:51:36;;;;;;;16.97;5.73;;;;;;;;;;5105276;28;20024;-66
2021/05/07 01:54:01;;;;;;;14.93;5.70;;;;;;;;;;5111182;28;20024;-66
2021/05/07 01:56:26;;;;;;;17.87;6.23;;;;;;;;;;5107083;28;20040;-66
2021/05/07 01:58:51;;;;;;;14.67;6.10;;;;;;;;;;5109910;28;20027;-66
2021/05/07 02:01:17;;;;;;;17.00;6.07;;;;;;;;;;5107760;28;20056;-66
2021/05/07 02:03:42;;;;;;;18.27;6.37;;;;;;;;;;5112205;28;20110;-66
2021/05/07 02:06:07;;;;;;;17.13;6.57;;;;;;;;;;5110333;28;20031;-66
2021/05/07 02:08:32;;;;;;;15.80;6.23;;;;;;;;;;5109991;28;20076;-66
2021/05/07 02:10:58;;;;;;;19.57;6.50;;;;;;;;;;5111042;28;20030;-66
2021/05/07 02:13:23;;;;;;;18.87;6.77;;;;;;;;;;5109350;28;20102;-66
2021/05/07 02:15:48;;;;;;;15.73;6.00;;;;;;;;;;5109678;28;20036;-66
2021/05/07 02:18:14;;;;;;;19.07;6.27;;;;;;;;;;5109612;28;20111;-66
2021/05/07 02:20:40;;;;;;;18.70;6.60;;;;;;;;;;5110966;28;20034;-66
2021/05/07 02:23:06;;;;;;;18.27;6.40;;;;;;;;;;5114192;28;20079;-66
2021/05/07 02:25:31;;;;;;;19.63;5.97;;;;;;;;;;5111274;28;20340;-66
2021/05/07 02:27:57;;;;;;;15.60;6.30;;;;;;;;;;5111083;28;20315;-66
2021/05/07 02:30:23;;;;;;;16.10;6.23;;;;;;;;;;5114969;28;20019;-66
2021/05/07 02:32:48;;;;;;;18.67;6.73;;;;;;;;;;5113993;28;20032;-66
2021/05/07 02:35:14;;;;;;;17.93;6.03;;;;;;;;;;5115097;28;20767;-66
2021/05/07 02:37:41;;;;;;;18.63;6.93;;;;;;;;;;5112883;28;20024;-66
2021/05/07 02:40:07;;;;;;;17.70;6.30;;;;;;;;;;5104255;28;20024;-66
2021/05/07 02:42:33;;;;;;;17.70;6.67;;;;;;;;;;5110662;28;20281;-66
2021/05/07 02:44:58;;;;;;;20.13;7.03;;;;;;;;;;5114499;28;20615;-66
2021/05/07 02:47:24;;;;;;;16.60;6.10;;;;;;;;;;5109343;28;20072;-66
2021/05/07 02:49:49;;;;;;;15.00;5.53;;;;;;;;;;5112406;28;20446;-66
2021/05/07 02:52:15;;;;;;;14.70;5.67;;;;;;;;;;5114378;28;20031;-66
2021/05/07 02:54:40;;;;;;;16.33;6.43;;;;;;;;;;5115163;28;20107;-66
2021/05/07 02:57:06;;;;;;;17.67;6.67;;;;;;;;;;5114131;28;20096;-66
2021/05/07 02:59:31;;;;;;;21.20;8.27;;;;;;;;;;5114438;28;20104;-66
2021/05/07 03:01:56;;;;;;;21.27;7.07;;;;;;;;;;5112560;27;20061;-66
2021/05/07 03:04:21;;;;;;;27.97;8.53;;;;;;;;;;5107626;28;20046;-66
2021/05/07 03:06:48;;;;;;;26.07;7.83;;;;;;;;;;5113961;28;20052;-66
2021/05/07 03:09:14;;;;;;;27.47;8.10;;;;;;;;;;5113887;28;20345;-66
2021/05/07 03:11:39;;;;;;;23.60;6.93;;;;;;;;;;5113448;28;20368;-66
2021/05/07 03:14:05;;;;;;;20.30;7.60;;;;;;;;;;5113227;28;20042;-66
2021/05/07 03:16:31;;;;;;;24.30;7.40;;;;;;;;;;5111727;28;20032;-66
2021/05/07 03:18:56;;;;;;;16.83;6.73;;;;;;;;;;5111943;28;20024;-66
2021/05/07 03:21:22;;;;;;;20.93;6.90;;;;;;;;;;5108067;28;20039;-66
2021/05/07 03:23:47;;;;;;;23.17;7.40;;;;;;;;;;5114398;28;20023;-66
2021/05/07 03:26:12;;;;;;;26.27;7.27;;;;;;;;;;5109479;28;20056;-66
2021/05/07 03:28:39;;;;;;;21.23;7.53;;;;;;;;;;5114190;28;20085;-66
2021/05/07 03:31:08;;;;;;;24.10;7.37;;;;;;;;;;5111005;28;20908;-66
2021/05/07 03:33:34;;;;;;;19.80;7.23;;;;;;;;;;5113199;28;20772;-66
2021/05/07 03:35:59;;;;;;;19.47;7.47;;;;;;;;;;5113672;28;20281;-66
2021/05/07 03:38:25;;;;;;;18.10;7.43;;;;;;;;;;5110961;28;20285;-67
2021/05/07 03:40:50;;;;;;;17.77;7.33;;;;;;;;;;5110333;28;20023;-66
2021/05/07 03:43:16;;;;;;;20.60;7.90;;;;;;;;;;5108052;28;20052;-66
2021/05/07 03:45:41;;;;;;;19.00;7.97;;;;;;;;;;5112169;28;20027;-66
2021/05/07 03:48:33;;;;;;;18.53;6.90;;;;;;;;;;5106996;28;20486;-66
2021/05/07 03:50:58;;;;;;;21.10;7.57;;;;;;;;;;5106132;28;20063;-66
2021/05/07 03:53:23;;;;;;;15.73;6.33;;;;;;;;;;5107868;28;20700;-66
2021/05/07 03:55:49;;;;;;;19.40;6.97;;;;;;;;;;5111665;28;20380;-66
2021/05/07 03:58:15;;;;;;;17.87;7.30;;;;;;;;;;5112935;28;20051;-66
2021/05/07 04:00:40;;;;;;;16.23;6.90;;;;;;;;;;5111203;28;20389;-66
2021/05/07 04:03:06;;;;;;;17.50;6.27;;;;;;;;;;5110966;28;20050;-66
2021/05/07 04:05:32;;;;;;;19.97;7.40;;;;;;;;;;5110175;28;20164;-66
2021/05/07 04:10:43;;;;;;;19.63;6.80;;;;;;;;;;5112402;28;20031;-66
2021/05/07 04:15:53;;;;;;;16.63;6.43;;;;;;;;;;5109246;28;20904;-66
2021/05/07 04:18:18;;;;;;;18.23;7.67;;;;;;;;;;5110559;28;20269;-66
2021/05/07 04:20:43;;;;;;;17.93;7.87;;;;;;;;;;5107796;28;20452;-66
2021/05/07 04:23:08;;;;;;;16.70;6.93;;;;;;;;;;5110093;28;20064;-66
2021/05/07 04:25:34;;;;;;;16.90;6.50;;;;;;;;;;5111721;28;20027;-66
2021/05/07 04:27:59;;;;;;;18.27;6.00;;;;;;;;;;5107533;28;20027;-66
2021/05/07 04:30:24;;;;;;;21.43;8.23;;;;;;;;;;5112830;28;20030;-66
2021/05/07 04:32:49;;;;;;;19.50;7.77;;;;;;;;;;5110814;28;20024;-66
2021/05/07 04:35:15;;;;;;;16.60;7.13;;;;;;;;;;5112417;28;20034;-66
2021/05/07 04:37:40;;;;;;;19.40;7.43;;;;;;;;;;5107065;28;20482;-66
2021/05/07 04:40:05;;;;;;;16.40;7.03;;;;;;;;;;5111128;28;20023;-66
2021/05/07 04:42:31;;;;;;;15.47;6.90;;;;;;;;;;5111493;28;20020;-66
2021/05/07 04:44:56;;;;;;;16.83;7.00;;;;;;;;;;5110332;28;20031;-66
2021/05/07 04:47:21;;;;;;;14.77;6.67;;;;;;;;;;5104400;28;20116;-66
2021/05/07 04:49:46;;;;;;;15.23;6.60;;;;;;;;;;5108978;28;22123;-66
2021/05/07 04:52:12;;;;;;;17.17;7.20;;;;;;;;;;5106539;28;20027;-66
2021/05/07 04:54:37;;;;;;;18.13;6.80;;;;;;;;;;5111117;28;20070;-66
2021/05/07 04:57:02;;;;;;;15.23;6.67;;;;;;;;;;5109687;28;20460;-66
2021/05/07 04:59:27;;;;;;;15.17;6.27;;;;;;;;;;5111923;28;20077;-66
2021/05/07 05:01:53;;;;;;;15.57;6.63;;;;;;;;;;5104963;28;20039;-66
2021/05/07 05:04:18;;;;;;;16.43;6.30;;;;;;;;;;5110697;28;20108;-66
2021/05/07 05:06:43;;;;;;;13.47;5.73;;;;;;;;;;5107901;28;20376;-66
2021/05/07 05:09:08;;;;;;;17.40;6.77;;;;;;;;;;5112751;28;20376;-66
2021/05/07 05:11:34;;;;;;;16.87;7.70;;;;;;;;;;5108322;28;20042;-66
2021/05/07 05:13:59;;;;;;;18.77;7.70;;;;;;;;;;5111084;28;20023;-67
2021/05/07 05:16:24;;;;;;;12.07;5.67;;;;;;;;;;5109843;28;20034;-66
2021/05/07 05:18:50;;;;;;;15.37;6.40;;;;;;;;;;5109631;28;20063;-66
2021/05/07 05:21:15;;;;;;;14.13;6.30;;;;;;;;;;5092698;28;20023;-67
2021/05/07 05:23:43;;;;;;;10.23;5.10;;;;;;;;;;5110476;28;20047;-66
2021/05/07 05:26:09;;;;;;;13.17;5.53;;;;;;;;;;5107360;28;20104;-66
2021/05/07 05:28:34;;;;;;;10.13;4.70;;;;;;;;;;5104410;28;20305;-66
2021/05/07 05:31:00;;;;;;;10.43;5.00;;;;;;;;;;5111285;28;20019;-66
2021/05/07 05:33:26;;;;;;;11.07;4.90;;;;;;;;;;5116018;28;20027;-66
2021/05/07 05:35:51;;;;;;;13.53;4.73;;;;;;;;;;5109639;28;20390;-66
2021/05/07 05:38:17;;;;;;;9.73;4.60;;;;;;;;;;5109104;28;20348;-67
2021/05/07 05:40:42;;;;;;;8.80;4.13;;;;;;;;;;5108751;28;20460;-66
2021/05/07 05:43:08;;;;;;;9.90;4.33;;;;;;;;;;5104405;28;20051;-66
2021/05/07 05:45:33;;;;;;;8.37;4.30;;;;;;;;;;5111643;28;20024;-66
2021/05/07 05:48:01;;;;;;;8.87;4.27;;;;;;;;;;5110509;28;20077;-66
2021/05/07 05:50:27;;;;;;;10.40;5.00;;;;;;;;;;5111031;28;20443;-66
2021/05/07 05:52:52;;;;;;;8.70;4.20;;;;;;;;;;5103464;28;20087;-67
2021/05/07 05:55:18;;;;;;;8.70;4.10;;;;;;;;;;5108531;28;20456;-66
2021/05/07 05:57:43;;;;;;;7.27;3.23;;;;;;;;;;5109977;28;20387;-66
2021/05/07 06:00:08;;;;;;;7.67;3.93;;;;;;;;;;5116580;28;20484;-66
2021/05/07 06:02:34;;;;;;;7.93;3.40;;;;;;;;;;5112359;28;20457;-66
2021/05/07 06:04:59;;;;;;;6.03;3.03;;;;;;;;;;5115363;28;20032;-66
2021/05/07 06:07:24;;;;;;;7.60;3.90;;;;;;;;;;5113123;28;20458;-66
2021/05/07 06:09:50;;;;;;;6.47;3.10;;;;;;;;;;5113986;28;20445;-66
2021/05/07 06:12:15;;;;;;;5.70;2.60;;;;;;;;;;5112946;28;20077;-66
2021/05/07 06:14:40;;;;;;;7.33;3.17;;;;;;;;;;5113008;28;20028;-66
2021/05/07 06:17:06;;;;;;;6.43;3.17;;;;;;;;;;5113733;28;20019;-67
2021/05/07 06:19:31;;;;;;;7.03;3.27;;;;;;;;;;5113214;28;20055;-66
2021/05/07 06:21:56;;;;;;;6.23;3.10;;;;;;;;;;5112192;28;20031;-67
2021/05/07 06:24:21;;;;;;;6.47;3.23;;;;;;;;;;5114631;28;20475;-64
2021/05/07 06:26:47;;;;;;;5.97;3.17;;;;;;;;;;5107785;28;20027;-64
2021/05/07 06:29:12;;;;;;;5.13;2.63;;;;;;;;;;5114009;28;20055;-67
2021/05/07 06:31:37;;;;;;;5.50;2.63;;;;;;;;;;5114223;28;20028;-67
2021/05/07 06:34:02;;;;;;;6.47;2.87;;;;;;;;;;5114391;28;20024;-67
2021/05/07 06:36:29;;;;;;;7.27;3.20;;;;;;;;;;5114686;28;20157;-67
2021/05/07 06:38:54;;;;;;;5.93;2.97;;;;;;;;;;5113908;28;20059;-64
2021/05/07 06:41:21;;;;;;;6.93;2.90;;;;;;;;;;5113696;28;20112;-64
2021/05/07 06:43:47;;;;;;;7.90;3.83;;;;;;;;;;5112771;28;20072;-65
2021/05/07 06:46:12;;;;;;;6.13;2.80;;;;;;;;;;5109526;28;20103;-68
2021/05/07 06:48:37;;;;;;;5.90;3.17;;;;;;;;;;5107178;28;20023;-73
2021/05/07 06:51:02;;;;;;;4.93;2.20;;;;;;;;;;5106014;28;20494;-75
2021/05/07 06:53:28;;;;;;;4.23;2.10;;;;;;;;;;5097270;28;20020;-75
2021/05/07 06:55:53;;;;;;;4.27;1.87;;;;;;;;;;5103707;28;20033;-75
2021/05/07 06:58:18;;;;;;;6.10;2.40;;;;;;;;;;5107637;28;20073;-73
2021/05/07 07:00:43;;;;;;;4.47;1.97;;;;;;;;;;5112822;28;20022;-73
2021/05/07 07:03:09;;;;;;;3.60;1.80;;;;;;;;;;5111675;28;20039;-74
2021/05/07 07:05:34;;;;;;;3.60;2.00;;;;;;;;;;5104420;28;20036;-74
2021/05/07 07:07:59;;;;;;;3.40;1.87;;;;;;;;;;5107653;28;20514;-74
2021/05/07 07:10:25;;;;;;;3.33;1.70;;;;;;;;;;5103190;28;20024;-74
2021/05/07 07:12:50;;;;;;;3.50;1.90;;;;;;;;;;5113070;28;20051;-73
2021/05/07 07:15:16;;;;;;;4.43;1.80;;;;;;;;;;5112209;28;20468;-68
2021/05/07 07:17:41;;;;;;;3.70;1.90;;;;;;;;;;5099774;28;20085;-66
2021/05/07 07:20:07;;;;;;;4.40;2.33;;;;;;;;;;5107364;28;20104;-66
2021/05/07 07:22:33;;;;;;;5.00;2.00;;;;;;;;;;5096531;28;20540;-65
2021/05/07 07:24:58;;;;;;;3.80;2.00;;;;;;;;;;5097126;28;20032;-65
2021/05/07 07:27:23;;;;;;;4.10;1.93;;;;;;;;;;5102958;28;20028;-67
2021/05/07 07:29:48;;;;;;;5.40;2.40;;;;;;;;;;5108725;28;20028;-68
2021/05/07 07:32:14;;;;;;;4.77;2.10;;;;;;;;;;5111728;28;20032;-67
2021/05/07 07:34:40;;;;;;;4.53;2.00;;;;;;;;;;5113585;28;20036;-65
2021/05/07 07:37:05;;;;;;;5.43;1.80;;;;;;;;;;5105281;28;20103;-65
2021/05/07 07:39:30;;;;;;;4.30;1.90;;;;;;;;;;5104353;28;20046;-65
2021/05/07 07:41:56;;;;;;;4.67;2.37;;;;;;;;;;5108956;28;20375;-65
2021/05/07 07:44:21;;;;;;;4.60;2.13;;;;;;;;;;5109260;28;20035;-65
2021/05/07 07:46:46;;;;;;;5.97;2.20;;;;;;;;;;5103766;28;20034;-65
2021/05/07 07:49:12;;;;;;;4.53;2.07;;;;;;;;;;5109098;28;20383;-65
2021/05/07 07:51:38;;;;;;;4.00;2.03;;;;;;;;;;5101531;28;20448;-65
2021/05/07 07:54:06;;;;;;;3.83;2.03;;;;;;;;;;5113169;28;20429;-65
2021/05/07 07:56:31;;;;;;;4.10;1.70;;;;;;;;;;5110159;28;20042;-67
2021/05/07 07:58:57;;;;;;;3.33;1.80;;;;;;;;;;5104354;28;20031;-67
2021/05/07 08:01:22;;;;;;;4.60;1.90;;;;;;;;;;5110712;28;20056;-67
2021/05/07 08:03:48;;;;;;;4.17;2.10;;;;;;;;;;5108885;28;20039;-71
2021/05/07 08:06:14;;;;;;;4.10;2.00;;;;;;;;;;5112320;28;20074;-70
2021/05/07 08:08:39;;;;;;;4.43;2.00;;;;;;;;;;5107534;28;20388;-70
2021/05/07 08:11:04;;;;;;;3.57;1.70;;;;;;;;;;5106135;28;20036;-67
2021/05/07 08:13:29;;;;;;;4.63;2.00;;;;;;;;;;5113205;28;20019;-66
2021/05/07 08:15:55;;;;;;;3.27;1.53;;;;;;;;;;5110173;28;20031;-65
2021/05/07 08:18:20;;;;;;;4.50;1.50;;;;;;;;;;5098985;28;20032;-66
2021/05/07 08:20:45;;;;;;;4.70;1.80;;;;;;;;;;5103182;28;20051;-66
2021/05/07 08:23:11;;;;;;;4.20;2.00;;;;;;;;;;5112697;28;20030;-66
2021/05/07 08:25:36;;;;;;;5.37;1.87;;;;;;;;;;5106776;28;20028;-65
2021/05/07 08:28:01;;;;;;;3.90;1.87;;;;;;;;;;5102061;28;20034;-65
2021/05/07 08:30:27;;;;;;;4.77;1.83;;;;;;;;;;5096357;28;20020;-65
2021/05/07 08:32:52;;;;;;;4.50;1.70;;;;;;;;;;5097712;28;20020;-65
2021/05/07 08:35:17;;;;;;;3.77;1.60;;;;;;;;;;5101162;28;20115;-65
2021/05/07 08:37:43;;;;;;;5.47;2.60;;;;;;;;;;5103415;28;20085;-65
2021/05/07 08:40:12;;;;;;;3.47;1.60;;;;;;;;;;5111766;28;20043;-65
2021/05/07 08:42:37;;;;;;;3.77;1.70;;;;;;;;;;5100506;28;20031;-65
2021/05/07 08:45:03;;;;;;;3.03;1.40;;;;;;;;;;5101871;28;20416;-65
2021/05/07 08:47:32;;;;;;;3.27;1.63;;;;;;;;;;5103199;28;20024;-65
2021/05/07 08:49:58;;;;;;;3.77;1.80;;;;;;;;;;5109665;28;20437;-65
2021/05/07 08:52:24;;;;;;;3.47;1.70;;;;;;;;;;5102986;28;20516;-65
2021/05/07 08:54:50;;;;;;;5.37;1.70;;;;;;;;;;5110809;28;20023;-69
2021/05/07 08:57:16;;;;;;;2.83;1.50;;;;;;;;;;5103419;28;20034;-69
2021/05/07 08:59:41;;;;;;;3.50;1.60;;;;;;;;;;5110682;28;20024;-68
2021/05/07 09:02:06;;;;;;;4.00;1.63;;;;;;;;;;5110550;28;20055;-67
2021/05/07 09:04:31;;;;;;;4.67;1.77;;;;;;;;;;5110217;28;20035;-67
2021/05/07 09:06:57;;;;;;;3.83;1.40;;;;;;;;;;5107278;28;20387;-67
2021/05/07 09:09:29;;;;;;;3.43;1.60;;;;;;;;;;5111306;28;20031;-66
2021/05/07 09:11:55;;;;;;;1.85;1.00;;;;;;;;;;5109649;28;20039;-67
2021/05/07 09:14:21;;;;;;;2.50;1.27;;;;;;;;;;5112676;28;20084;-66
2021/05/07 09:16:49;;;;;;;2.27;1.23;;;;;;;;;;5110599;28;20031;-65
2021/05/07 09:19:19;;;;;;;2.70;1.20;;;;;;;;;;5112360;28;20103;-65
2021/05/07 09:21:44;;;;;;;2.37;1.30;;;;;;;;;;5106443;28;20020;-65
2021/05/07 09:24:09;;;;;;;2.87;1.30;;;;;;;;;;5107970;28;20478;-65
2021/05/07 09:26:43;;;;;;;3.40;1.50;;;;;;;;;;5104381;28;20328;-65
2021/05/07 09:29:16;;;;;;;2.97;1.50;;;;;;;;;;5110162;28;20015;-65
2021/05/07 09:31:49;;;;;;;4.63;1.87;;;;;;;;;;5107119;28;20024;-69
2021/05/07 09:34:15;;;;;;;3.83;1.27;;;;;;;;;;5099054;28;20049;-74
2021/05/07 09:36:40;;;;;;;2.27;1.20;;;;;;;;;;5105820;28;20031;-70
2021/05/07 09:39:16;;;;;;;2.70;1.27;;;;;;;;;;5112743;28;20467;-68
2021/05/07 09:41:45;;;;;;;2.60;1.57;;;;;;;;;;5110721;28;20066;-68
2021/05/07 09:44:12;;;;;;;2.70;1.60;;;;;;;;;;5106919;28;20024;-68
2021/05/07 09:46:39;;;;;;;3.90;2.00;;;;;;;;;;5105575;28;20047;-68
2021/05/07 09:49:05;;;;;;;3.23;1.50;;;;;;;;;;5105332;28;20030;-67
2021/05/07 09:51:38;;;;;;;3.47;1.50;;;;;;;;;;5109777;28;20480;-68
2021/05/07 09:54:07;;;;;;;3.83;1.60;;;;;;;;;;5112471;28;20027;-68
2021/05/07 09:56:32;;;;;;;3.00;1.50;;;;;;;;;;5111868;28;20027;-73
2021/05/07 09:58:59;;;;;;;2.93;1.33;;;;;;;;;;5111571;28;20428;-73
2021/05/07 10:01:24;;;;;;;4.93;1.70;;;;;;;;;;5111463;28;20040;-73
2021/05/07 10:03:49;;;;;;;3.50;1.30;;;;;;;;;;5105519;28;20456;-73
2021/05/07 10:06:17;;;;;;;3.43;1.43;;;;;;;;;;5101144;28;20042;-73
2021/05/07 10:08:43;;;;;;;2.53;1.17;;;;;;;;;;5112103;28;20011;-73
2021/05/07 10:11:08;;;;;;;2.77;1.17;;;;;;;;;;5109218;28;20094;-70
2021/05/07 10:13:34;;;;;;;2.93;1.20;;;;;;;;;;5112097;28;20094;-68
2021/05/07 10:16:07;;;;;;;2.27;1.20;;;;;;;;;;5109990;28;20020;-67
2021/05/07 10:18:33;;;;;;;;;;;;;;;;;;5112542;28;20468;-66
2021/05/07 10:20:59;;;;;;;3.67;1.20;;;;;;;;;;5108665;28;19923;-66
2021/05/07 10:23:24;;;;;;;2.00;1.10;;;;;;;;;;5101785;28;20368;-65
2021/05/07 10:26:09;;;;;;;4.10;1.00;;;;;;;;;;5107323;28;20020;-66
2021/05/07 10:28:44;;;;;;;3.27;1.03;;;;;;;;;;5094575;28;20433;-68
2021/05/07 10:31:10;;;;;;;1.53;0.77;;;;;;;;;;5101658;28;20039;-69
2021/05/07 10:33:35;;;;;;;1.10;0.70;;;;;;;;;;5111638;28;20024;-69
2021/05/07 10:36:01;;;;;;;2.37;1.10;;;;;;;;;;5100398;28;20489;-70
2021/05/07 10:38:27;;;;;;;1.20;0.70;;;;;;;;;;5108657;28;20019;-70
2021/05/07 10:41:06;;;;;;;2.90;0.80;;;;;;;;;;5100199;28;20371;-70
2021/05/07 10:43:42;;;;;;;2.30;0.97;;;;;;;;;;5104417;28;20083;-70
2021/05/07 10:46:18;;;;;;;1.90;0.80;;;;;;;;;;5106007;28;20031;-69
2021/05/07 10:48:50;;;;;;;4.38;1.08;;;;;;;;;;5113091;28;20012;-69
2021/05/07 10:51:15;;;;;;;1.93;0.80;;;;;;;;;;5098564;28;20387;-68
2021/05/07 10:53:40;;;;;;;8.23;1.70;;;;;;;;;;5115126;28;20285;-67
2021/05/07 10:56:19;;;;;;;2.50;1.47;;;;;;;;;;5111720;28;20016;-67
2021/05/07 10:58:45;;;;;;;2.40;1.07;;;;;;;;;;5113626;28;20020;-67
2021/05/07 11:01:22;;;;;;;3.93;1.10;;;;;;;;;;5107459;28;20052;-67
2021/05/07 11:04:08;;;;;;;2.40;1.20;;;;;;;;;;5104590;28;20031;-66
2021/05/07 11:06:44;;;;;;;2.50;1.13;;;;;;;;;;5109963;28;20027;-66
2021/05/07 11:09:19;;;;;;;2.20;1.10;;;;;;;;;;5106957;28;20465;-66
2021/05/07 11:11:45;;;;;;;4.33;1.30;;;;;;;;;;5097267;28;20024;-67
2021/05/07 11:14:14;;;;;;;2.67;1.10;;;;;;;;;;5111550;28;20077;-67
2021/05/07 11:16:40;;;;;;;2.60;1.00;;;;;;;;;;5113900;28;20379;-66
2021/05/07 11:19:06;;;;;;;1.67;0.83;;;;;;;;;;5113925;28;20023;-66
2021/05/07 11:21:31;;;;;;;3.73;1.10;;;;;;;;;;5106477;28;20044;-66
2021/05/07 11:23:57;;;;;;;1.93;0.80;;;;;;;;;;5108850;28;20016;-66
2021/05/07 11:26:33;;;;;;;2.07;1.00;;;;;;;;;;5107495;28;20012;-66
2021/05/07 11:28:58;;;;;;;2.20;1.13;;;;;;;;;;5109885;28;20022;-66
2021/05/07 11:31:27;;;;;;;2.03;1.00;;;;;;;;;;5103113;28;20032;-66
2021/05/07 11:33:52;;;;;;;2.20;1.00;;;;;;;;;;5114129;28;20023;-66
2021/05/07 11:36:21;;;;;;;1.90;0.87;;;;;;;;;;5113627;28;20034;-66
2021/05/07 11:38:46;;;;;;;2.40;0.90;;;;;;;;;;5113791;28;20030;-66
2021/05/07 11:41:17;;;;;;;2.03;0.90;;;;;;;;;;5113242;28;20032;-66
2021/05/07 11:43:43;;;;;;;2.87;0.97;;;;;;;;;;5108195;28;20440;-66
2021/05/07 11:46:08;;;;;;;3.07;0.93;;;;;;;;;;5111990;28;20077;-66
2021/05/07 11:48:34;;;;;;;2.03;1.10;;;;;;;;;;5107332;28;20149;-66
2021/05/07 11:51:06;;;;;;;2.57;1.13;;;;;;;;;;5099543;28;20031;-66
2021/05/07 11:53:32;;;;;;;1.60;0.98;;;;;;;;;;5111268;28;20361;-66
2021/05/07 11:55:57;;;;;;;3.33;1.30;;;;;;;;;;5107485;28;20039;-66
2021/05/07 11:58:33;;;;;;;3.67;1.20;;;;;;;;;;5107858;28;20467;-66
2021/05/07 12:00:58;;;;;;;2.33;1.10;;;;;;;;;;5104115;28;20103;-66
2021/05/07 12:03:34;;;;;;;2.17;1.10;;;;;;;;;;5113249;28;20448;-66
2021/05/07 12:06:00;;;;;;;2.93;1.10;;;;;;;;;;5109756;28;20020;-66
2021/05/07 12:08:25;;;;;;;3.43;1.60;;;;;;;;;;5111925;28;20020;-66
2021/05/07 12:10:51;;;;;;;3.13;1.50;;;;;;;;;;5111960;28;20019;-66
2021/05/07 12:13:23;;;;;;;3.50;1.10;;;;;;;;;;5099856;28;20066;-66
2021/05/07 12:15:48;;;;;;;;;;;;;;;;;;5110184;28;20023;-66
2021/05/07 12:18:17;;;;;;;1.70;1.00;;;;;;;;;;5112924;28;19919;-66
2021/05/07 12:20:46;;;;;;;2.13;1.00;;;;;;;;;;5111837;28;20023;-66
2021/05/07 12:23:12;;;;;;;3.73;1.30;;;;;;;;;;5113017;28;20054;-66
2021/05/07 12:25:44;;;;;;;3.07;1.10;;;;;;;;;;5112336;28;20032;-66
2021/05/07 12:28:36;;;;;;;2.67;1.20;;;;;;;;;;5098626;28;20028;-67
2021/05/07 12:31:03;;;;;;;3.13;1.25;;;;;;;;;;5096630;28;20027;-67
2021/05/07 12:33:28;;;;;;;2.40;0.93;;;;;;;;;;5106976;28;20023;-66
2021/05/07 12:35:55;;;;;;;3.50;1.20;;;;;;;;;;5112577;28;20456;-66
2021/05/07 12:38:34;;;;;;;2.40;1.20;;;;;;;;;;5108998;28;20027;-66
2021/05/07 12:41:00;;;;;;;3.60;1.43;;;;;;;;;;5112747;28;20373;-66
2021/05/07 12:43:26;;;;;;;2.53;1.20;;;;;;;;;;5087937;28;20020;-66
2021/05/07 12:45:52;;;;;;;3.53;1.67;;;;;;;;;;5112603;28;20023;-66
2021/05/07 12:48:17;;;;;;;2.43;1.00;;;;;;;;;;5103638;28;20020;-66
2021/05/07 12:50:43;;;;;;;3.67;1.13;;;;;;;;;;5103898;28;20333;-66
2021/05/07 12:53:09;;;;;;;2.03;1.00;;;;;;;;;;5105738;28;20043;-66
2021/05/07 12:55:35;;;;;;;4.27;1.00;;;;;;;;;;5111701;28;20362;-66
2021/05/07 12:58:00;;;;;;;1.80;0.80;;;;;;;;;;5101187;28;20019;-66
2021/05/07 13:00:26;;;;;;;2.27;1.00;;;;;;;;;;5101363;28;20020;-66
2021/05/07 13:02:51;;;;;;;3.27;0.80;;;;;;;;;;5096836;28;20101;-66
2021/05/07 13:05:16;;;;;;;1.70;0.90;;;;;;;;;;5109144;28;20033;-66
2021/05/07 13:07:41;;;;;;;5.20;1.10;;;;;;;;;;5104924;28;20031;-66
2021/05/07 13:10:07;;;;;;;3.90;0.82;;;;;;;;;;5108627;28;20039;-66
2021/05/07 13:12:32;;;;;;;2.23;0.90;;;;;;;;;;5104031;28;20032;-66
2021/05/07 13:14:59;;;;;;;3.00;1.00;;;;;;;;;;5109895;28;20030;-66
2021/05/07 13:17:24;;;;;;;2.27;0.90;;;;;;;;;;5105582;28;20068;-66
2021/05/07 13:19:49;;;;;;;2.30;0.70;;;;;;;;;;5108669;28;20402;-65
2021/05/07 13:22:15;;;;;;;1.60;0.73;;;;;;;;;;5103683;28;20023;-66
2021/05/07 13:24:41;;;;;;;3.00;0.70;;;;;;;;;;5109313;28;20019;-66
2021/05/07 13:27:06;;;;;;;0.90;0.50;;;;;;;;;;5107322;28;20111;-65
2021/05/07 13:29:32;;;;;;;0.87;0.50;;;;;;;;;;5112186;28;20077;-65
2021/05/07 13:31:57;;;;;;;1.00;0.50;;;;;;;;;;5107650;28;20024;-65
2021/05/07 13:34:24;;;;;;;1.43;0.50;;;;;;;;;;5111086;28;20098;-65
2021/05/07 13:36:50;;;;;;;4.60;0.73;;;;;;;;;;5099157;28;20131;-65
2021/05/07 13:39:15;;;;;;;1.57;0.97;;;;;;;;;;5103469;28;20098;-65
2021/05/07 13:41:40;;;;;;;2.43;0.80;;;;;;;;;;5098828;28;20024;-65
2021/05/07 13:44:05;;;;;;;1.40;0.70;;;;;;;;;;5109075;28;20032;-65
2021/05/07 13:46:32;;;;;;;1.33;0.60;;;;;;;;;;5102792;28;20511;-65
2021/05/07 13:48:57;;;;;;;1.90;0.70;;;;;;;;;;5109725;28;20023;-65
2021/05/07 13:51:25;;;;;;;2.10;0.70;;;;;;;;;;5105780;28;20019;-66
2021/05/07 13:53:51;;;;;;;2.53;1.10;;;;;;;;;;5110175;28;20568;-66
2021/05/07 13:56:16;;;;;;;2.60;1.03;;;;;;;;;;5104592;28;20107;-66
2021/05/07 13:58:41;;;;;;;3.80;0.90;;;;;;;;;;5098909;28;20032;-66
2021/05/07 14:01:06;;;;;;;2.03;1.10;;;;;;;;;;5108090;28;20093;-65
2021/05/07 14:03:32;;;;;;;3.17;0.90;;;;;;;;;;5107434;28;20417;-65
2021/05/07 14:05:57;;;;;;;3.07;0.90;;;;;;;;;;5110674;28;20051;-65
2021/05/07 14:08:22;;;;;;;1.83;0.80;;;;;;;;;;5105274;28;20015;-65
2021/05/07 14:10:47;;;;;;;2.10;1.00;;;;;;;;;;5105404;28;20487;-65
2021/05/07 14:13:13;;;;;;;2.37;1.10;;;;;;;;;;5104387;28;20431;-65
2021/05/07 14:15:38;;;;;;;5.40;0.80;;;;;;;;;;5110903;28;20050;-65
2021/05/07 14:18:04;;;;;;;2.33;0.70;;;;;;;;;;5105427;28;20107;-65
2021/05/07 14:20:32;;;;;;;1.77;0.97;;;;;;;;;;5113288;28;20036;-65
2021/05/07 14:22:57;;;;;;;1.30;0.70;;;;;;;;;;5114735;28;20032;-65
2021/05/07 14:25:22;;;;;;;3.10;0.70;;;;;;;;;;5110516;28;20024;-65
2021/05/07 14:27:48;;;;;;;1.77;0.60;;;;;;;;;;5107513;28;20043;-65
2021/05/07 14:30:15;;;;;;;1.40;0.70;;;;;;;;;;5109173;28;20020;-65
2021/05/07 14:32:41;;;;;;;1.90;0.97;;;;;;;;;;5110666;28;20410;-65
2021/05/07 14:35:06;;;;;;;1.10;0.70;;;;;;;;;;5107039;28;20051;-65
2021/05/07 14:37:31;;;;;;;1.30;0.50;;;;;;;;;;5107015;28;20028;-65
2021/05/07 14:39:57;;;;;;;3.87;0.70;;;;;;;;;;5108094;28;20024;-65